Time;durP1;ratioP1;P1;durP2;ratioP2;P2;SDS_P1;SDS_P2;PMS_P1;PMS_P2;Temp;Humidity;BMP_temperature;BMP_pressure;BME280_temperature;BME280_humidity;BME280_pressure;Samples;Min_cycle;Max_cycle;Signal;HPM_P1;HPM_P2
2023/12/16 00:06:20;;;;;;;2.95;1.38;;;;;;;18.33;55.37;103314.09;20826185;28;20056;-69
2023/12/16 00:16:24;;;;;;;3.22;1.23;;;;;;;18.30;55.07;103327.75;20844686;28;20045;-69
2023/12/16 00:26:26;;;;;;;2.97;1.20;;;;;;;18.29;55.11;103338.59;20847568;28;20049;-69
2023/12/16 00:36:27;;;;;;;2.92;1.00;;;;;;;18.26;55.11;103323.47;20820674;28;20134;-69
2023/12/16 00:46:29;;;;;;;2.88;1.25;;;;;;;18.21;55.19;103302.13;20791222;28;20049;-68
2023/12/16 00:56:31;;;;;;;4.28;1.63;;;;;;;18.24;54.91;103312.75;20831809;28;20080;-69
2023/12/16 01:06:33;;;;;;;3.33;1.30;;;;;;;18.23;54.60;103323.63;20821888;28;20076;-69
2023/12/16 01:16:34;;;;;;;3.15;1.30;;;;;;;18.22;54.62;103329.97;20832136;28;20045;-69
2023/12/16 01:26:36;;;;;;;3.58;1.60;;;;;;;18.21;54.45;103306.66;20836905;28;20045;-69
2023/12/16 01:36:38;;;;;;;3.20;1.70;;;;;;;18.19;54.34;103303.19;20846353;28;20433;-69
2023/12/16 01:46:40;;;;;;;3.85;1.30;;;;;;;18.17;54.12;103286.22;20816068;28;20581;-69
2023/12/16 01:56:42;;;;;;;2.90;1.15;;;;;;;18.16;53.80;103276.38;20839612;28;20136;-69
2023/12/16 02:06:44;;;;;;;2.97;1.25;;;;;;;18.14;53.87;103273.75;20832554;28;20048;-69
2023/12/16 02:16:46;;;;;;;3.00;1.50;;;;;;;18.13;53.49;103282.78;20824695;28;20168;-69
2023/12/16 02:26:48;;;;;;;3.80;1.60;;;;;;;18.16;53.15;103271.00;20838845;28;20056;-69
2023/12/16 02:36:50;;;;;;;2.10;1.15;;;;;;;18.16;52.99;103263.75;20824584;28;20052;-69
2023/12/16 02:46:52;;;;;;;2.95;1.30;;;;;;;18.16;52.67;103258.38;20837615;28;20052;-69
2023/12/16 02:56:54;;;;;;;4.47;1.60;;;;;;;18.16;52.57;103268.28;20816884;28;20955;-69
2023/12/16 03:06:55;;;;;;;3.05;1.38;;;;;;;18.15;52.60;103253.94;20832444;28;20075;-69
2023/12/16 03:16:57;;;;;;;3.45;1.45;;;;;;;18.14;52.46;103276.44;20841111;28;20130;-69
2023/12/16 03:26:59;;;;;;;2.58;1.10;;;;;;;18.13;52.37;103298.09;20825957;28;20061;-69
2023/12/16 03:37:01;;;;;;;2.97;1.30;;;;;;;18.13;52.54;103290.03;20837888;28;20053;-69
2023/12/16 03:47:02;;;;;;;2.50;1.10;;;;;;;18.10;52.24;103272.16;20843697;28;20490;-69
2023/12/16 03:57:05;;;;;;;2.38;1.00;;;;;;;18.06;51.94;103274.13;20812649;28;20530;-69
2023/12/16 04:07:07;;;;;;;3.80;1.20;;;;;;;18.17;52.00;103294.31;20828517;28;20053;-68
2023/12/16 04:17:09;;;;;;;2.72;0.98;;;;;;;18.23;51.73;103275.97;20821367;28;20045;-68
2023/12/16 04:27:10;;;;;;;2.75;1.17;;;;;;;18.26;51.53;103277.63;20812745;28;20056;-69
2023/12/16 04:37:12;;;;;;;2.53;1.23;;;;;;;18.27;51.34;103280.22;20865728;28;20068;-69
2023/12/16 04:47:14;;;;;;;3.35;1.10;;;;;;;18.28;51.32;103262.25;20828798;28;20055;-69
2023/12/16 04:57:16;;;;;;;3.38;1.42;;;;;;;18.28;51.18;103251.47;20834603;28;20122;-69
2023/12/16 05:07:17;;;;;;;3.15;1.10;;;;;;;18.30;51.20;103263.03;20828279;28;20123;-69
2023/12/16 05:17:19;;;;;;;3.75;1.17;;;;;;;18.31;51.25;103262.09;20829720;28;20064;-69
2023/12/16 05:27:21;;;;;;;3.50;1.00;;;;;;;18.32;51.12;103263.81;20842768;28;20503;-68
2023/12/16 05:37:23;;;;;;;2.95;1.17;;;;;;;18.37;50.93;103280.63;20828583;28;20122;-69
2023/12/16 05:47:25;;;;;;;4.32;1.38;;;;;;;18.36;50.88;103262.72;20832841;28;20522;-69
2023/12/16 05:57:27;;;;;;;4.60;1.58;;;;;;;18.37;50.96;103264.44;20826987;28;20053;-69
2023/12/16 06:07:28;;;;;;;2.53;1.27;;;;;;;18.38;50.99;103279.66;20815626;28;20052;-69
2023/12/16 06:17:30;;;;;;;2.60;1.30;;;;;;;18.41;50.99;103278.66;20826064;28;20049;-69
2023/12/16 06:27:32;;;;;;;3.97;1.45;;;;;;;18.41;51.04;103263.31;20820588;28;20045;-69
2023/12/16 06:37:34;;;;;;;3.72;1.52;;;;;;;18.44;50.79;103283.00;20844637;28;20134;-69
2023/12/16 06:47:37;;;;;;;4.70;1.35;;;;;;;18.47;50.69;103296.31;20824662;28;20049;-69
2023/12/16 06:57:39;;;;;;;3.15;1.20;;;;;;;18.46;50.99;103294.56;20850514;28;20053;-69
2023/12/16 07:07:43;;;;;;;3.80;1.50;;;;;;;18.44;51.13;103301.88;20826883;28;20855;-69
2023/12/16 07:17:44;;;;;;;3.42;1.40;;;;;;;18.43;51.30;103321.72;20844153;28;20049;-69
2023/12/16 07:27:47;;;;;;;4.55;1.38;;;;;;;18.44;51.39;103332.44;20827380;28;20052;-69
2023/12/16 07:37:48;;;;;;;3.75;1.80;;;;;;;18.46;51.60;103324.25;20827382;28;20057;-69
2023/12/16 07:47:50;;;;;;;3.45;1.30;;;;;;;18.47;51.48;103323.28;20827620;28;20063;-69
2023/12/16 07:57:52;;;;;;;3.22;1.27;;;;;;;18.48;51.62;103322.34;20848637;28;20057;-69
2023/12/16 08:07:54;;;;;;;2.92;1.33;;;;;;;18.50;51.57;103315.03;20817936;28;20059;-68
2023/12/16 08:17:56;;;;;;;3.17;1.30;;;;;;;18.54;51.64;103327.41;20826703;28;20121;-69
2023/12/16 08:27:58;;;;;;;3.83;1.58;;;;;;;18.57;51.71;103350.66;20822782;28;20563;-69
2023/12/16 08:38:01;;;;;;;3.38;1.33;;;;;;;18.58;51.77;103360.50;20821913;28;20436;-69
2023/12/16 08:48:03;;;;;;;3.58;1.40;;;;;;;18.66;51.59;103371.75;20822962;28;20048;-69
2023/12/16 08:58:05;;;;;;;5.00;1.67;;;;;;;18.77;51.47;103366.66;20817892;28;20045;-69
2023/12/16 09:08:07;;;;;;;4.30;1.77;;;;;;;18.84;51.21;103367.19;20825582;28;20120;-69
2023/12/16 09:18:11;;;;;;;2.90;1.30;;;;;;;18.88;51.34;103363.38;20806118;28;20045;-69
2023/12/16 09:28:13;;;;;;;4.05;1.50;;;;;;;18.90;51.17;103363.31;20842312;28;20049;-69
2023/12/16 09:38:15;;;;;;;5.00;1.63;;;;;;;18.92;51.35;103386.53;20811687;28;20049;-69
2023/12/16 09:48:17;;;;;;;4.68;1.63;;;;;;;18.65;52.46;103391.59;20827209;28;20048;-67
2023/12/16 09:58:19;;;;;;;5.93;1.60;;;;;;;18.39;53.23;103386.59;20860019;28;20555;-66
2023/12/16 10:08:21;;;;;;;4.68;1.70;;;;;;;18.37;53.73;103372.31;20820106;28;20045;-67
2023/12/16 10:18:23;;;;;;;3.88;1.73;;;;;;;18.45;53.50;103358.44;20805501;28;20053;-69
2023/12/16 10:28:26;;;;;;;4.18;1.75;;;;;;;18.37;53.29;103326.47;20844772;28;20053;-69
2023/12/16 10:38:28;;;;;;;4.65;1.75;;;;;;;18.61;53.57;103341.44;20843659;28;20386;-67
2023/12/16 10:48:35;;;;;;;4.47;1.83;;;;;;;18.67;53.42;103324.94;20826213;28;20096;-69
2023/12/16 10:58:43;;;;;;;5.10;2.00;;;;;;;18.73;53.43;103312.94;20851456;28;20549;-66
2023/12/16 11:08:45;;;;;;;6.75;2.13;;;;;;;18.69;53.63;103286.13;20830615;28;20060;-66
2023/12/16 11:18:48;;;;;;;4.18;1.77;;;;;;;18.72;53.65;103281.50;20852758;28;20057;-66
2023/12/16 11:28:53;;;;;;;4.68;2.03;;;;;;;18.76;53.82;103269.59;20831154;28;20080;-66
2023/12/16 11:38:54;;;;;;;4.70;2.07;;;;;;;18.76;53.99;103254.25;20830037;28;20049;-66
2023/12/16 11:48:57;;;;;;;3.70;2.20;;;;;;;18.80;53.94;103255.88;20839876;28;20490;-66
2023/12/16 11:59:00;;;;;;;3.70;1.85;;;;;;;18.81;54.28;103257.59;20824060;28;20045;-66
2023/12/16 12:09:02;;;;;;;3.25;1.55;;;;;;;18.85;54.40;103244.78;20828515;28;20434;-66
2023/12/16 12:19:04;;;;;;;4.43;1.80;;;;;;;18.73;54.58;103213.09;20827284;28;20053;-66
2023/12/16 12:29:06;;;;;;;3.05;1.63;;;;;;;18.89;54.72;103256.31;20835323;28;20060;-66
2023/12/16 12:39:13;;;;;;;4.13;1.70;;;;;;;18.90;54.86;103261.59;20829863;28;20064;-66
2023/12/16 12:49:16;;;;;;;2.38;1.60;;;;;;;18.89;55.24;103249.06;20829681;28;20052;-65
2023/12/16 12:59:18;;;;;;;4.47;1.58;;;;;;;18.98;55.25;103243.16;20842497;28;20818;-66
2023/12/16 13:09:41;;;;;;;3.40;1.70;;;;;;;18.97;55.67;103230.63;20821944;28;20049;-67
2023/12/16 13:19:42;;;;;;;3.72;1.52;;;;;;;19.06;55.86;103213.06;20838359;28;20516;-68
2023/12/16 13:29:44;;;;;;;4.13;1.42;;;;;;;19.16;55.72;103202.59;20822897;28;20045;-67
2023/12/16 13:39:46;;;;;;;2.65;1.40;;;;;;;19.21;56.04;103188.81;20809887;28;20493;-67
2023/12/16 14:00:36;;;;;;;1.70;1.00;;;;;;;19.27;56.55;103161.47;20825365;28;20051;-66
2023/12/16 14:10:38;;;;;;;3.10;1.10;;;;;;;19.34;56.58;103162.84;20842282;28;20053;-69
2023/12/16 14:20:40;;;;;;;1.20;0.93;;;;;;;19.38;56.60;103155.41;20827961;28;20432;-67
2023/12/16 14:30:42;;;;;;;2.35;0.80;;;;;;;19.39;56.60;103149.94;20818207;28;20056;-68
2023/12/16 14:40:44;;;;;;;2.13;1.23;;;;;;;19.40;56.71;103150.78;20856276;28;20060;-69
2023/12/16 14:50:46;;;;;;;4.00;1.45;;;;;;;19.42;58.19;103171.38;20821932;28;20130;-72
2023/12/16 15:00:48;;;;;;;15.20;1.35;;;;;;;19.54;60.32;103168.88;20787106;28;20068;-65
2023/12/16 15:10:51;;;;;;;2.70;1.45;;;;;;;19.56;60.12;103166.97;20796041;28;20044;-67
2023/12/16 15:20:53;;;;;;;4.13;1.30;;;;;;;19.59;60.71;103171.31;20799958;28;20493;-68
2023/12/16 15:30:55;;;;;;;6.85;1.45;;;;;;;19.51;63.04;103140.25;20784853;28;20052;-72
2023/12/16 15:40:57;;;;;;;4.68;1.55;;;;;;;19.79;62.98;103165.56;20774034;28;20053;-70
2023/12/16 15:50:58;;;;;;;4.75;1.50;;;;;;;19.71;63.65;103175.97;20787869;28;20160;-69
2023/12/16 16:01:00;;;;;;;5.95;1.55;;;;;;;19.48;65.89;103175.53;20771106;28;20985;-75
2023/12/16 16:11:04;;;;;;;3.85;1.20;;;;;;;19.38;67.49;103161.72;20757246;28;20053;-66
2023/12/16 16:21:07;;;;;;;;;;;;;;;19.26;69.78;103178.66;20776238;28;20090;-70
2023/12/16 16:31:08;;;;;;;5.13;2.03;;;;;;;19.26;76.09;103175.94;20789184;28;19925;-66
2023/12/16 16:41:13;;;;;;;7.05;1.50;;;;;;;19.20;76.16;103171.75;20788705;28;20208;-64
2023/12/16 16:51:15;;;;;;;3.78;1.45;;;;;;;19.31;74.75;103195.44;20785357;28;20056;-66
2023/12/16 17:01:17;;;;;;;4.80;1.42;;;;;;;19.31;73.43;103194.56;20786578;28;20049;-65
2023/12/16 17:11:19;;;;;;;4.25;1.40;;;;;;;19.31;72.74;103178.34;20809928;28;20140;-70
2023/12/16 17:21:21;;;;;;;6.32;1.73;;;;;;;19.39;72.35;103198.56;20804156;28;20071;-74
2023/12/16 17:31:25;;;;;;;3.05;1.30;;;;;;;19.53;72.15;103173.44;20804030;28;20448;-70
2023/12/16 17:41:27;;;;;;;5.33;1.60;;;;;;;19.61;71.94;103170.25;20798180;28;20512;-67
2023/12/16 17:51:29;;;;;;;2.83;1.10;;;;;;;19.84;71.11;103178.81;20775398;28;20522;-71
2023/12/16 18:01:31;;;;;;;4.30;1.23;;;;;;;19.97;70.34;103171.72;20760789;28;20139;-70
2023/12/16 18:11:40;;;;;;;3.55;1.27;;;;;;;19.98;70.02;103199.63;20780922;28;20516;-70
2023/12/16 18:21:41;;;;;;;3.38;1.48;;;;;;;20.00;69.90;103209.38;20801530;28;20139;-70
2023/12/16 18:31:43;;;;;;;2.40;1.30;;;;;;;20.04;69.54;103222.69;20812895;28;20134;-67
2023/12/16 18:41:45;;;;;;;3.40;1.30;;;;;;;20.00;69.63;103213.94;20817791;28;20056;-69
2023/12/16 18:51:47;;;;;;;4.13;1.92;;;;;;;20.06;69.61;103228.88;20818762;28;20053;-68
2023/12/16 19:01:49;;;;;;;4.22;1.85;;;;;;;20.05;69.76;103232.56;20824617;28;20084;-66
2023/12/16 19:11:52;;;;;;;3.47;1.50;;;;;;;20.03;70.03;103215.56;20825877;28;20053;-67
2023/12/16 19:21:54;;;;;;;3.05;1.92;;;;;;;19.84;69.30;103213.94;20797253;28;20529;-69
2023/12/16 19:31:56;;;;;;;3.58;1.65;;;;;;;19.64;68.67;103198.94;20824420;28;20127;-69
2023/12/16 19:41:58;;;;;;;2.35;1.30;;;;;;;19.51;68.10;103212.31;20814798;28;20512;-69
2023/12/16 19:52:00;;;;;;;2.75;1.33;;;;;;;19.44;67.99;103227.13;20824774;28;20160;-69
2023/12/16 20:02:02;;;;;;;3.20;1.80;;;;;;;19.36;67.50;103227.56;20826459;28;20056;-69
2023/12/16 20:12:05;;;;;;;3.63;1.80;;;;;;;19.28;67.07;103215.38;20818245;28;20049;-69
2023/12/16 20:22:07;;;;;;;4.10;2.00;;;;;;;19.22;66.95;103223.84;20826483;28;20052;-69
2023/12/16 20:32:09;;;;;;;4.25;1.73;;;;;;;19.20;67.05;103236.56;20829453;28;20071;-68
2023/12/16 20:42:14;;;;;;;3.90;1.60;;;;;;;19.19;66.82;103240.22;20798965;28;20417;-68
2023/12/16 20:52:16;;;;;;;;;;;;;;;19.17;66.59;103225.06;20839024;28;20520;-69
2023/12/16 21:02:18;;;;;;;2.83;1.50;;;;;;;19.11;66.44;103199.31;20846628;28;19931;-69
2023/12/16 21:12:21;;;;;;;2.53;1.38;;;;;;;19.11;66.43;103193.91;20831007;28;20613;-69
2023/12/16 21:22:23;;;;;;;1.73;1.20;;;;;;;18.98;66.21;103164.88;20821685;28;20041;-68
2023/12/16 21:32:25;;;;;;;3.33;1.60;;;;;;;19.10;65.94;103175.97;20828305;28;20069;-68
2023/12/16 21:42:26;;;;;;;2.03;1.25;;;;;;;19.08;65.81;103192.22;20804436;28;20099;-69
2023/12/16 21:52:29;;;;;;;1.67;0.90;;;;;;;19.06;65.54;103196.84;20821708;28;20045;-68
2023/12/16 22:02:31;;;;;;;1.55;1.23;;;;;;;19.05;65.53;103178.06;20847930;28;20052;-68
2023/12/16 22:12:33;;;;;;;1.48;0.98;;;;;;;19.06;65.37;103174.41;20855674;28;20071;-69
2023/12/16 22:22:34;;;;;;;0.95;0.70;;;;;;;19.08;64.89;103205.75;20841171;28;20052;-69
2023/12/16 22:32:36;;;;;;;1.77;0.70;;;;;;;19.07;64.67;103186.94;20850585;28;20052;-68
2023/12/16 22:42:38;;;;;;;1.00;0.63;;;;;;;19.07;64.55;103159.94;20819765;28;21931;-69
2023/12/16 22:52:40;;;;;;;1.40;0.80;;;;;;;19.04;64.31;103179.03;20819666;28;20056;-68
2023/12/16 23:02:41;;;;;;;1.00;0.70;;;;;;;19.04;64.03;103189.81;20834815;28;20060;-68
2023/12/16 23:12:43;;;;;;;0.75;0.55;;;;;;;19.03;63.93;103186.22;20803527;28;20057;-69
2023/12/16 23:22:45;;;;;;;1.00;0.70;;;;;;;19.02;63.76;103176.41;20854083;28;20055;-69
2023/12/16 23:32:48;;;;;;;1.45;0.60;;;;;;;19.01;63.70;103179.19;20839438;28;20064;-69
2023/12/16 23:42:50;;;;;;;0.98;0.63;;;;;;;19.02;63.33;103184.50;20830086;28;20053;-69
2023/12/16 23:52:52;;;;;;;1.90;0.90;;;;;;;19.02;63.22;103168.28;20806398;28;20056;-68
